Iniskin, AK

11:11 AM AKST on February 19, 2017 (GMT -0900)
Port Alsworth | | Change Station

Elev 266 ft 60.20 °N, 154.30 °W | Updated 2 hours ago

Partly Cloudy
Partly Cloudy
7 °F
Feels Like -2 °F
N
5
Wind Variable Wind from WNW

Today
High -- | Low -- °F
--% Chance of Precip.
Yesterday
High -- | Low -- °F
Precip. -- in
Pressure 29.80 in
Visibility 30.0 miles
Clouds Scattered Clouds 4000 ft
Windchill -2 °F
Dew Point 3 °F
Humidity 85%
Rainfall 0.00 in
Snow Depth Not available.
8:37 AM 6:18 PM
Last Quarter, 40% visible
METAR PALJ 191757Z 29004KT 30SM SCT040 M14/M16 A2980 RMK FIRST EST PASS OPEN NOSPECI
Pressure 29.80 in
Visibility 30.0 miles
Clouds Scattered Clouds 4000 ft
Windchill -2 °F
Dew Point 3 °F
Humidity 85%
Rainfall 0.00 in
Snow Depth Not available.
8:37 AM 6:18 PM
Last Quarter, 40% visible
METAR PALJ 191757Z 29004KT 30SM SCT040 M14/M16 A2980 RMK FIRST EST PASS OPEN NOSPECI

Get Your Daily Forecast Email!

Thanks for signing up!

Be on the lookout for a verification email in your inbox.

You'll start receiving the daily forecast at 8 AM.

×

10-Day Weather Forecast

Almanac

Astronomy

Feb. 19, 2017 Rise Set
Actual Time
Civil Twilight
Nautical Twilight
Astronomical Twilight
Moon
Length of Visible Light
Length of Day
Tomorrow will be .
, % of the Moon is Illuminated

Today's Extremes

State Highs State Lows

Community

WunderPhotos

Upload Photos

1,962,540 photos uploaded!

WunderBlog® & News

Nearby

Air Quality

  Air Quality AQ Index Pollutant
Not available.

Snow Depth

Station Depth Elevation

Earthquake Activity

City Distance Mag. Time & Date
Minimum magnitude displayed is 2.5.

Coastal Water Temperatures

Place Temperature

Stations

Nearby Weather Stations

Station Location Temp. Windchill Dew Point Humidity Wind Precip. Elev Updated Type
                   

Watches & Warnings

There are currently no watches in effect.